Keswick, California
Current Conditions -  °F | °C
As of 6:56 AM on Monday 22 Dec 2014 (Local Time) from KRDD Reporting Station
Haze Haze  
Wind Chill: 54°   Ceiling: 1100
Heat Index: 54°   Visibility: 4mi
Dew Point: 53°   Wind: 0mph
Humidity: 97%   Direction: NA
Pressure: 30.28"   Gusts: NA
Location:  40.5977°N, 122.467°W
Report Text: KRDD 221456Z 00000KT 4SM BR SCT002 OVC011 12/12 A3028 RMK AO2 T01220117
Loading
Personal Weather Stations






























Interactive Weather Map New forecast layout! Learn more

10-Day Weather Forecast

Advertisements
Track Severe Weather on mobile